sensor_id;sensor_type;location;lat;lon;timestamp;P1;durP1;ratioP1;P2;durP2;ratioP2
19808;SDS011;48538;32.784;-96.802;2023-04-19T00:01:32;10.05;;;4.60;;
19808;SDS011;48538;32.784;-96.802;2023-04-19T00:03:58;8.00;;;3.78;;
19808;SDS011;48538;32.784;-96.802;2023-04-19T00:06:24;9.63;;;4.20;;
19808;SDS011;48538;32.784;-96.802;2023-04-19T00:08:54;13.30;;;4.13;;
19808;SDS011;48538;32.784;-96.802;2023-04-19T00:11:21;9.43;;;4.68;;
19808;SDS011;48538;32.784;-96.802;2023-04-19T00:13:48;11.48;;;4.55;;
19808;SDS011;48538;32.784;-96.802;2023-04-19T00:16:15;10.45;;;4.95;;
19808;SDS011;48538;32.784;-96.802;2023-04-19T00:18:41;8.15;;;4.82;;
19808;SDS011;48538;32.784;-96.802;2023-04-19T00:21:07;15.02;;;5.32;;
19808;SDS011;48538;32.784;-96.802;2023-04-19T00:23:34;11.57;;;4.50;;
19808;SDS011;48538;32.784;-96.802;2023-04-19T00:26:03;8.43;;;4.47;;
19808;SDS011;48538;32.784;-96.802;2023-04-19T00:28:29;9.98;;;4.47;;
19808;SDS011;48538;32.784;-96.802;2023-04-19T00:30:58;7.60;;;4.57;;
19808;SDS011;48538;32.784;-96.802;2023-04-19T00:33:25;12.60;;;5.80;;
19808;SDS011;48538;32.784;-96.802;2023-04-19T00:35:51;11.10;;;5.25;;
19808;SDS011;48538;32.784;-96.802;2023-04-19T00:38:17;42.85;;;17.02;;
19808;SDS011;48538;32.784;-96.802;2023-04-19T00:40:43;31.27;;;13.50;;
19808;SDS011;48538;32.784;-96.802;2023-04-19T00:43:11;12.27;;;5.78;;
19808;SDS011;48538;32.784;-96.802;2023-04-19T00:45:41;18.75;;;8.70;;
19808;SDS011;48538;32.784;-96.802;2023-04-19T00:48:07;16.67;;;5.68;;
19808;SDS011;48538;32.784;-96.802;2023-04-19T00:50:34;10.63;;;4.53;;
19808;SDS011;48538;32.784;-96.802;2023-04-19T00:53:00;12.60;;;5.05;;
19808;SDS011;48538;32.784;-96.802;2023-04-19T00:55:27;9.32;;;4.82;;
19808;SDS011;48538;32.784;-96.802;2023-04-19T00:57:53;11.05;;;4.40;;
19808;SDS011;48538;32.784;-96.802;2023-04-19T01:00:20;10.82;;;5.05;;
19808;SDS011;48538;32.784;-96.802;2023-04-19T01:02:46;13.45;;;4.78;;
19808;SDS011;48538;32.784;-96.802;2023-04-19T01:05:13;11.50;;;4.85;;
19808;SDS011;48538;32.784;-96.802;2023-04-19T01:07:39;15.52;;;5.15;;
19808;SDS011;48538;32.784;-96.802;2023-04-19T01:10:06;13.43;;;5.00;;
19808;SDS011;48538;32.784;-96.802;2023-04-19T01:12:33;10.70;;;4.82;;
19808;SDS011;48538;32.784;-96.802;2023-04-19T01:15:00;8.52;;;4.80;;
19808;SDS011;48538;32.784;-96.802;2023-04-19T01:17:27;11.23;;;5.20;;
19808;SDS011;48538;32.784;-96.802;2023-04-19T01:19:59;8.38;;;5.00;;
19808;SDS011;48538;32.784;-96.802;2023-04-19T01:22:27;9.05;;;4.90;;
19808;SDS011;48538;32.784;-96.802;2023-04-19T01:24:54;12.57;;;5.38;;
19808;SDS011;48538;32.784;-96.802;2023-04-19T01:27:21;9.27;;;5.45;;
19808;SDS011;48538;32.784;-96.802;2023-04-19T01:29:48;11.82;;;4.93;;
19808;SDS011;48538;32.784;-96.802;2023-04-19T01:32:14;9.35;;;5.00;;
19808;SDS011;48538;32.784;-96.802;2023-04-19T01:34:41;13.68;;;5.70;;
19808;SDS011;48538;32.784;-96.802;2023-04-19T01:37:08;8.15;;;5.18;;
19808;SDS011;48538;32.784;-96.802;2023-04-19T01:39:34;14.20;;;5.88;;
19808;SDS011;48538;32.784;-96.802;2023-04-19T01:42:00;11.02;;;5.13;;
19808;SDS011;48538;32.784;-96.802;2023-04-19T01:44:27;12.88;;;5.85;;
19808;SDS011;48538;32.784;-96.802;2023-04-19T01:46:53;12.10;;;5.13;;
19808;SDS011;48538;32.784;-96.802;2023-04-19T01:49:20;10.63;;;5.28;;
19808;SDS011;48538;32.784;-96.802;2023-04-19T01:51:46;12.02;;;5.45;;
19808;SDS011;48538;32.784;-96.802;2023-04-19T01:54:12;12.63;;;4.97;;
19808;SDS011;48538;32.784;-96.802;2023-04-19T01:56:39;12.07;;;5.20;;
19808;SDS011;48538;32.784;-96.802;2023-04-19T01:59:05;8.52;;;4.72;;
19808;SDS011;48538;32.784;-96.802;2023-04-19T02:01:31;11.82;;;5.28;;
19808;SDS011;48538;32.784;-96.802;2023-04-19T02:03:58;12.05;;;4.68;;
19808;SDS011;48538;32.784;-96.802;2023-04-19T02:06:24;9.20;;;4.80;;
19808;SDS011;48538;32.784;-96.802;2023-04-19T02:08:51;12.18;;;5.20;;
19808;SDS011;48538;32.784;-96.802;2023-04-19T02:11:17;10.20;;;5.45;;
19808;SDS011;48538;32.784;-96.802;2023-04-19T02:13:43;11.52;;;5.43;;
19808;SDS011;48538;32.784;-96.802;2023-04-19T02:16:10;9.07;;;5.28;;
19808;SDS011;48538;32.784;-96.802;2023-04-19T02:18:36;19.25;;;6.15;;
19808;SDS011;48538;32.784;-96.802;2023-04-19T02:21:06;7.85;;;5.05;;
19808;SDS011;48538;32.784;-96.802;2023-04-19T02:23:33;9.40;;;5.10;;
19808;SDS011;48538;32.784;-96.802;2023-04-19T02:26:00;12.50;;;4.93;;
19808;SDS011;48538;32.784;-96.802;2023-04-19T02:28:29;9.13;;;5.45;;
19808;SDS011;48538;32.784;-96.802;2023-04-19T02:30:56;10.65;;;5.35;;
19808;SDS011;48538;32.784;-96.802;2023-04-19T02:33:24;15.02;;;5.57;;
19808;SDS011;48538;32.784;-96.802;2023-04-19T02:35:53;7.47;;;4.40;;
19808;SDS011;48538;32.784;-96.802;2023-04-19T02:38:20;9.90;;;4.60;;
19808;SDS011;48538;32.784;-96.802;2023-04-19T02:40:46;11.05;;;5.50;;
19808;SDS011;48538;32.784;-96.802;2023-04-19T02:43:12;11.75;;;5.22;;
19808;SDS011;48538;32.784;-96.802;2023-04-19T02:45:38;7.20;;;4.43;;
19808;SDS011;48538;32.784;-96.802;2023-04-19T02:48:05;8.57;;;4.97;;
19808;SDS011;48538;32.784;-96.802;2023-04-19T02:50:31;8.57;;;4.90;;
19808;SDS011;48538;32.784;-96.802;2023-04-19T02:52:58;11.25;;;5.07;;
19808;SDS011;48538;32.784;-96.802;2023-04-19T02:55:24;7.68;;;5.22;;
19808;SDS011;48538;32.784;-96.802;2023-04-19T02:57:50;16.13;;;5.28;;
19808;SDS011;48538;32.784;-96.802;2023-04-19T03:00:16;14.57;;;4.93;;
19808;SDS011;48538;32.784;-96.802;2023-04-19T03:02:43;12.52;;;5.18;;
19808;SDS011;48538;32.784;-96.802;2023-04-19T03:05:09;13.48;;;5.70;;
19808;SDS011;48538;32.784;-96.802;2023-04-19T03:07:36;13.40;;;5.38;;
19808;SDS011;48538;32.784;-96.802;2023-04-19T03:10:02;10.60;;;5.65;;
19808;SDS011;48538;32.784;-96.802;2023-04-19T03:12:28;11.25;;;5.78;;
19808;SDS011;48538;32.784;-96.802;2023-04-19T03:14:55;11.82;;;5.13;;
19808;SDS011;48538;32.784;-96.802;2023-04-19T03:17:21;9.65;;;5.10;;
19808;SDS011;48538;32.784;-96.802;2023-04-19T03:19:47;12.25;;;5.60;;
19808;SDS011;48538;32.784;-96.802;2023-04-19T03:22:14;13.00;;;5.45;;
19808;SDS011;48538;32.784;-96.802;2023-04-19T03:24:40;12.15;;;5.28;;
19808;SDS011;48538;32.784;-96.802;2023-04-19T03:27:06;11.10;;;4.78;;
19808;SDS011;48538;32.784;-96.802;2023-04-19T03:29:33;9.82;;;5.47;;
19808;SDS011;48538;32.784;-96.802;2023-04-19T03:31:59;10.43;;;5.45;;
19808;SDS011;48538;32.784;-96.802;2023-04-19T03:34:25;10.88;;;5.43;;
19808;SDS011;48538;32.784;-96.802;2023-04-19T03:36:52;9.80;;;4.95;;
19808;SDS011;48538;32.784;-96.802;2023-04-19T03:39:18;10.35;;;4.82;;
19808;SDS011;48538;32.784;-96.802;2023-04-19T03:41:44;10.82;;;4.72;;
19808;SDS011;48538;32.784;-96.802;2023-04-19T03:44:10;12.40;;;5.05;;
19808;SDS011;48538;32.784;-96.802;2023-04-19T03:46:37;14.50;;;4.97;;
19808;SDS011;48538;32.784;-96.802;2023-04-19T03:49:03;12.52;;;5.88;;
19808;SDS011;48538;32.784;-96.802;2023-04-19T03:51:30;9.90;;;5.20;;
19808;SDS011;48538;32.784;-96.802;2023-04-19T03:53:56;9.80;;;5.05;;
19808;SDS011;48538;32.784;-96.802;2023-04-19T03:56:23;9.32;;;5.30;;
19808;SDS011;48538;32.784;-96.802;2023-04-19T03:58:50;6.57;;;4.60;;
19808;SDS011;48538;32.784;-96.802;2023-04-19T04:01:19;7.72;;;5.20;;
19808;SDS011;48538;32.784;-96.802;2023-04-19T04:03:46;10.00;;;5.32;;
19808;SDS011;48538;32.784;-96.802;2023-04-19T04:06:12;9.63;;;4.68;;
19808;SDS011;48538;32.784;-96.802;2023-04-19T04:08:39;14.10;;;5.45;;
19808;SDS011;48538;32.784;-96.802;2023-04-19T04:11:05;9.48;;;4.65;;
19808;SDS011;48538;32.784;-96.802;2023-04-19T04:13:31;12.25;;;4.78;;
19808;SDS011;48538;32.784;-96.802;2023-04-19T04:15:57;9.18;;;5.03;;
19808;SDS011;48538;32.784;-96.802;2023-04-19T04:18:24;11.68;;;4.25;;
19808;SDS011;48538;32.784;-96.802;2023-04-19T04:20:52;7.68;;;4.78;;
19808;SDS011;48538;32.784;-96.802;2023-04-19T04:23:19;9.38;;;5.05;;
19808;SDS011;48538;32.784;-96.802;2023-04-19T04:25:46;9.52;;;4.57;;
19808;SDS011;48538;32.784;-96.802;2023-04-19T04:28:12;9.20;;;5.22;;
19808;SDS011;48538;32.784;-96.802;2023-04-19T04:30:38;11.40;;;4.55;;
19808;SDS011;48538;32.784;-96.802;2023-04-19T04:33:06;11.43;;;4.00;;
19808;SDS011;48538;32.784;-96.802;2023-04-19T04:35:32;12.43;;;4.28;;
19808;SDS011;48538;32.784;-96.802;2023-04-19T04:37:59;10.63;;;5.25;;
19808;SDS011;48538;32.784;-96.802;2023-04-19T04:40:27;10.73;;;4.10;;
19808;SDS011;48538;32.784;-96.802;2023-04-19T04:42:53;10.30;;;4.47;;
19808;SDS011;48538;32.784;-96.802;2023-04-19T04:45:20;16.13;;;4.93;;
19808;SDS011;48538;32.784;-96.802;2023-04-19T04:47:46;7.47;;;4.10;;
19808;SDS011;48538;32.784;-96.802;2023-04-19T04:50:12;10.10;;;4.32;;
19808;SDS011;48538;32.784;-96.802;2023-04-19T04:52:39;8.95;;;4.35;;
19808;SDS011;48538;32.784;-96.802;2023-04-19T04:55:05;8.57;;;4.28;;
19808;SDS011;48538;32.784;-96.802;2023-04-19T04:57:31;9.32;;;4.18;;
19808;SDS011;48538;32.784;-96.802;2023-04-19T04:59:58;9.82;;;4.28;;
19808;SDS011;48538;32.784;-96.802;2023-04-19T05:02:24;7.70;;;4.00;;
19808;SDS011;48538;32.784;-96.802;2023-04-19T05:04:50;11.77;;;4.15;;
19808;SDS011;48538;32.784;-96.802;2023-04-19T05:07:16;11.82;;;4.10;;
19808;SDS011;48538;32.784;-96.802;2023-04-19T05:09:43;7.70;;;3.90;;
19808;SDS011;48538;32.784;-96.802;2023-04-19T05:12:09;11.38;;;4.05;;
19808;SDS011;48538;32.784;-96.802;2023-04-19T05:14:35;9.73;;;4.47;;
19808;SDS011;48538;32.784;-96.802;2023-04-19T05:17:02;10.77;;;4.43;;
19808;SDS011;48538;32.784;-96.802;2023-04-19T05:19:28;13.02;;;4.55;;
19808;SDS011;48538;32.784;-96.802;2023-04-19T05:21:54;7.05;;;3.50;;
19808;SDS011;48538;32.784;-96.802;2023-04-19T05:24:20;10.93;;;4.22;;
19808;SDS011;48538;32.784;-96.802;2023-04-19T05:26:47;13.75;;;4.00;;
19808;SDS011;48538;32.784;-96.802;2023-04-19T05:29:13;6.45;;;3.30;;
19808;SDS011;48538;32.784;-96.802;2023-04-19T05:31:40;7.38;;;4.13;;
19808;SDS011;48538;32.784;-96.802;2023-04-19T05:34:06;9.18;;;4.10;;
19808;SDS011;48538;32.784;-96.802;2023-04-19T05:36:32;10.10;;;3.85;;
19808;SDS011;48538;32.784;-96.802;2023-04-19T05:38:58;7.90;;;3.40;;
19808;SDS011;48538;32.784;-96.802;2023-04-19T05:41:25;6.90;;;3.67;;
19808;SDS011;48538;32.784;-96.802;2023-04-19T05:43:51;10.57;;;3.33;;
19808;SDS011;48538;32.784;-96.802;2023-04-19T05:46:18;10.57;;;3.90;;
19808;SDS011;48538;32.784;-96.802;2023-04-19T05:48:44;10.02;;;3.70;;
19808;SDS011;48538;32.784;-96.802;2023-04-19T05:51:10;5.13;;;3.10;;
19808;SDS011;48538;32.784;-96.802;2023-04-19T05:53:38;6.78;;;3.40;;
19808;SDS011;48538;32.784;-96.802;2023-04-19T05:56:04;8.02;;;3.55;;
19808;SDS011;48538;32.784;-96.802;2023-04-19T05:58:31;9.98;;;3.60;;
19808;SDS011;48538;32.784;-96.802;2023-04-19T06:00:57;10.35;;;3.40;;
19808;SDS011;48538;32.784;-96.802;2023-04-19T06:03:23;7.50;;;3.50;;
19808;SDS011;48538;32.784;-96.802;2023-04-19T06:05:50;6.65;;;3.53;;
19808;SDS011;48538;32.784;-96.802;2023-04-19T06:08:16;4.93;;;3.20;;
19808;SDS011;48538;32.784;-96.802;2023-04-19T06:10:43;8.45;;;3.85;;
19808;SDS011;48538;32.784;-96.802;2023-04-19T06:13:12;11.82;;;3.92;;
19808;SDS011;48538;32.784;-96.802;2023-04-19T06:15:38;11.00;;;3.72;;
19808;SDS011;48538;32.784;-96.802;2023-04-19T06:18:04;7.38;;;3.63;;
19808;SDS011;48538;32.784;-96.802;2023-04-19T06:20:37;7.60;;;3.72;;
19808;SDS011;48538;32.784;-96.802;2023-04-19T06:23:04;9.82;;;3.45;;
19808;SDS011;48538;32.784;-96.802;2023-04-19T06:25:30;6.70;;;3.50;;
19808;SDS011;48538;32.784;-96.802;2023-04-19T06:27:57;12.80;;;3.72;;
19808;SDS011;48538;32.784;-96.802;2023-04-19T06:30:23;7.72;;;3.40;;
19808;SDS011;48538;32.784;-96.802;2023-04-19T06:32:50;7.95;;;3.00;;
19808;SDS011;48538;32.784;-96.802;2023-04-19T06:35:16;7.13;;;3.55;;
19808;SDS011;48538;32.784;-96.802;2023-04-19T06:37:43;7.07;;;3.45;;
19808;SDS011;48538;32.784;-96.802;2023-04-19T06:40:09;7.85;;;4.10;;
19808;SDS011;48538;32.784;-96.802;2023-04-19T06:42:36;8.55;;;3.30;;
19808;SDS011;48538;32.784;-96.802;2023-04-19T06:45:02;5.60;;;2.90;;
19808;SDS011;48538;32.784;-96.802;2023-04-19T06:47:30;7.68;;;3.22;;
19808;SDS011;48538;32.784;-96.802;2023-04-19T06:49:56;6.85;;;3.17;;
19808;SDS011;48538;32.784;-96.802;2023-04-19T06:52:23;10.15;;;3.97;;
19808;SDS011;48538;32.784;-96.802;2023-04-19T06:54:49;6.95;;;3.60;;
19808;SDS011;48538;32.784;-96.802;2023-04-19T06:57:16;10.07;;;3.35;;
19808;SDS011;48538;32.784;-96.802;2023-04-19T06:59:43;7.88;;;3.67;;
19808;SDS011;48538;32.784;-96.802;2023-04-19T07:02:09;12.45;;;3.63;;
19808;SDS011;48538;32.784;-96.802;2023-04-19T07:04:35;9.27;;;3.65;;
19808;SDS011;48538;32.784;-96.802;2023-04-19T07:07:02;7.85;;;3.90;;
19808;SDS011;48538;32.784;-96.802;2023-04-19T07:09:28;5.57;;;3.20;;
19808;SDS011;48538;32.784;-96.802;2023-04-19T07:11:55;10.73;;;3.30;;
19808;SDS011;48538;32.784;-96.802;2023-04-19T07:14:21;12.60;;;3.25;;
19808;SDS011;48538;32.784;-96.802;2023-04-19T07:16:48;7.95;;;3.22;;
19808;SDS011;48538;32.784;-96.802;2023-04-19T07:19:14;6.85;;;3.17;;
19808;SDS011;48538;32.784;-96.802;2023-04-19T07:21:43;6.40;;;3.03;;
19808;SDS011;48538;32.784;-96.802;2023-04-19T07:24:09;5.32;;;2.95;;
19808;SDS011;48538;32.784;-96.802;2023-04-19T07:26:35;6.93;;;3.03;;
19808;SDS011;48538;32.784;-96.802;2023-04-19T07:29:02;13.48;;;3.42;;
19808;SDS011;48538;32.784;-96.802;2023-04-19T07:31:29;8.93;;;2.70;;
19808;SDS011;48538;32.784;-96.802;2023-04-19T07:33:55;10.85;;;3.60;;
19808;SDS011;48538;32.784;-96.802;2023-04-19T07:36:21;6.13;;;3.10;;
19808;SDS011;48538;32.784;-96.802;2023-04-19T07:38:47;7.38;;;3.25;;
19808;SDS011;48538;32.784;-96.802;2023-04-19T07:41:14;7.30;;;3.05;;
19808;SDS011;48538;32.784;-96.802;2023-04-19T07:43:40;7.70;;;3.35;;
19808;SDS011;48538;32.784;-96.802;2023-04-19T07:46:10;6.72;;;3.13;;
19808;SDS011;48538;32.784;-96.802;2023-04-19T07:48:38;9.82;;;3.22;;
19808;SDS011;48538;32.784;-96.802;2023-04-19T07:51:08;12.27;;;3.88;;
19808;SDS011;48538;32.784;-96.802;2023-04-19T07:53:39;7.60;;;3.85;;
19808;SDS011;48538;32.784;-96.802;2023-04-19T07:56:06;5.10;;;2.95;;
19808;SDS011;48538;32.784;-96.802;2023-04-19T07:58:33;6.18;;;2.90;;
19808;SDS011;48538;32.784;-96.802;2023-04-19T08:01:00;10.40;;;3.42;;
19808;SDS011;48538;32.784;-96.802;2023-04-19T08:03:28;13.25;;;3.13;;
19808;SDS011;48538;32.784;-96.802;2023-04-19T08:05:56;9.98;;;3.45;;
19808;SDS011;48538;32.784;-96.802;2023-04-19T08:08:22;5.47;;;3.15;;
19808;SDS011;48538;32.784;-96.802;2023-04-19T08:10:50;8.48;;;3.13;;
19808;SDS011;48538;32.784;-96.802;2023-04-19T08:13:19;11.57;;;3.15;;
19808;SDS011;48538;32.784;-96.802;2023-04-19T08:15:46;9.38;;;3.15;;
19808;SDS011;48538;32.784;-96.802;2023-04-19T08:18:12;8.25;;;3.30;;
19808;SDS011;48538;32.784;-96.802;2023-04-19T08:20:38;9.73;;;2.95;;
19808;SDS011;48538;32.784;-96.802;2023-04-19T08:23:07;17.45;;;3.40;;
19808;SDS011;48538;32.784;-96.802;2023-04-19T08:25:35;13.63;;;3.58;;
19808;SDS011;48538;32.784;-96.802;2023-04-19T08:28:01;7.85;;;3.13;;
19808;SDS011;48538;32.784;-96.802;2023-04-19T08:30:28;10.00;;;3.30;;
19808;SDS011;48538;32.784;-96.802;2023-04-19T08:32:54;12.23;;;3.38;;
19808;SDS011;48538;32.784;-96.802;2023-04-19T08:35:21;12.73;;;4.00;;
19808;SDS011;48538;32.784;-96.802;2023-04-19T08:37:47;6.43;;;3.20;;
19808;SDS011;48538;32.784;-96.802;2023-04-19T08:40:14;10.52;;;3.90;;
19808;SDS011;48538;32.784;-96.802;2023-04-19T08:42:41;10.88;;;3.65;;
19808;SDS011;48538;32.784;-96.802;2023-04-19T08:45:08;10.32;;;3.55;;
19808;SDS011;48538;32.784;-96.802;2023-04-19T08:47:38;11.93;;;3.95;;
19808;SDS011;48538;32.784;-96.802;2023-04-19T08:50:05;7.70;;;3.28;;
19808;SDS011;48538;32.784;-96.802;2023-04-19T08:52:33;10.80;;;3.75;;
19808;SDS011;48538;32.784;-96.802;2023-04-19T08:55:04;8.93;;;3.83;;
19808;SDS011;48538;32.784;-96.802;2023-04-19T08:57:32;15.63;;;4.38;;
19808;SDS011;48538;32.784;-96.802;2023-04-19T09:00:00;9.95;;;3.92;;
19808;SDS011;48538;32.784;-96.802;2023-04-19T09:02:43;12.90;;;3.90;;
19808;SDS011;48538;32.784;-96.802;2023-04-19T09:05:13;15.02;;;3.72;;
19808;SDS011;48538;32.784;-96.802;2023-04-19T09:07:40;10.60;;;3.63;;
19808;SDS011;48538;32.784;-96.802;2023-04-19T09:10:08;12.98;;;3.20;;
19808;SDS011;48538;32.784;-96.802;2023-04-19T09:12:35;8.73;;;3.65;;
19808;SDS011;48538;32.784;-96.802;2023-04-19T09:15:02;12.60;;;3.55;;
19808;SDS011;48538;32.784;-96.802;2023-04-19T09:17:32;11.88;;;4.47;;
19808;SDS011;48538;32.784;-96.802;2023-04-19T09:19:59;13.95;;;4.05;;
19808;SDS011;48538;32.784;-96.802;2023-04-19T09:22:26;12.23;;;3.45;;
19808;SDS011;48538;32.784;-96.802;2023-04-19T09:24:52;9.95;;;3.50;;
19808;SDS011;48538;32.784;-96.802;2023-04-19T09:27:28;9.05;;;3.65;;
19808;SDS011;48538;32.784;-96.802;2023-04-19T09:29:57;9.98;;;3.70;;
19808;SDS011;48538;32.784;-96.802;2023-04-19T09:32:25;11.25;;;3.28;;
19808;SDS011;48538;32.784;-96.802;2023-04-19T09:34:58;8.80;;;3.40;;
19808;SDS011;48538;32.784;-96.802;2023-04-19T09:37:25;13.30;;;3.85;;
19808;SDS011;48538;32.784;-96.802;2023-04-19T09:39:52;5.63;;;3.40;;
19808;SDS011;48538;32.784;-96.802;2023-04-19T09:42:18;14.98;;;3.60;;
19808;SDS011;48538;32.784;-96.802;2023-04-19T09:44:59;12.55;;;3.85;;
19808;SDS011;48538;32.784;-96.802;2023-04-19T09:47:26;13.10;;;4.55;;
19808;SDS011;48538;32.784;-96.802;2023-04-19T09:52:49;12.48;;;3.90;;
19808;SDS011;48538;32.784;-96.802;2023-04-19T09:55:17;14.02;;;3.95;;
19808;SDS011;48538;32.784;-96.802;2023-04-19T09:57:44;12.65;;;3.47;;
19808;SDS011;48538;32.784;-96.802;2023-04-19T10:00:10;12.52;;;3.97;;
19808;SDS011;48538;32.784;-96.802;2023-04-19T10:02:39;10.88;;;3.63;;
19808;SDS011;48538;32.784;-96.802;2023-04-19T10:05:07;12.88;;;4.72;;
19808;SDS011;48538;32.784;-96.802;2023-04-19T10:07:34;11.52;;;3.97;;
19808;SDS011;48538;32.784;-96.802;2023-04-19T10:10:01;9.23;;;3.60;;
19808;SDS011;48538;32.784;-96.802;2023-04-19T10:12:29;16.15;;;3.50;;
19808;SDS011;48538;32.784;-96.802;2023-04-19T10:14:57;19.30;;;4.28;;
19808;SDS011;48538;32.784;-96.802;2023-04-19T10:17:23;8.88;;;3.58;;
19808;SDS011;48538;32.784;-96.802;2023-04-19T10:19:58;10.05;;;4.20;;
19808;SDS011;48538;32.784;-96.802;2023-04-19T10:22:31;13.48;;;3.90;;
19808;SDS011;48538;32.784;-96.802;2023-04-19T10:25:08;14.95;;;4.10;;
19808;SDS011;48538;32.784;-96.802;2023-04-19T10:27:35;12.00;;;4.10;;
19808;SDS011;48538;32.784;-96.802;2023-04-19T10:30:03;12.60;;;4.35;;
19808;SDS011;48538;32.784;-96.802;2023-04-19T10:32:39;13.32;;;3.88;;
19808;SDS011;48538;32.784;-96.802;2023-04-19T10:35:15;12.82;;;3.40;;
19808;SDS011;48538;32.784;-96.802;2023-04-19T10:43:19;17.67;;;4.07;;
19808;SDS011;48538;32.784;-96.802;2023-04-19T10:45:46;11.00;;;4.50;;
19808;SDS011;48538;32.784;-96.802;2023-04-19T10:51:12;18.40;;;4.20;;
19808;SDS011;48538;32.784;-96.802;2023-04-19T11:09:21;14.63;;;4.30;;
19808;SDS011;48538;32.784;-96.802;2023-04-19T11:11:51;18.15;;;4.95;;
19808;SDS011;48538;32.784;-96.802;2023-04-19T11:14:20;8.85;;;4.15;;
19808;SDS011;48538;32.784;-96.802;2023-04-19T11:16:47;11.90;;;4.07;;
19808;SDS011;48538;32.784;-96.802;2023-04-19T11:19:14;11.52;;;4.43;;
19808;SDS011;48538;32.784;-96.802;2023-04-19T11:21:44;13.77;;;3.95;;
19808;SDS011;48538;32.784;-96.802;2023-04-19T11:24:13;17.52;;;4.72;;
19808;SDS011;48538;32.784;-96.802;2023-04-19T11:26:43;15.73;;;4.90;;
19808;SDS011;48538;32.784;-96.802;2023-04-19T11:29:13;24.60;;;4.03;;
19808;SDS011;48538;32.784;-96.802;2023-04-19T11:31:39;14.40;;;4.30;;
19808;SDS011;48538;32.784;-96.802;2023-04-19T11:34:10;12.80;;;4.35;;
19808;SDS011;48538;32.784;-96.802;2023-04-19T11:36:49;14.45;;;4.15;;
19808;SDS011;48538;32.784;-96.802;2023-04-19T11:39:17;12.55;;;5.15;;
19808;SDS011;48538;32.784;-96.802;2023-04-19T11:41:43;11.70;;;4.30;;
19808;SDS011;48538;32.784;-96.802;2023-04-19T11:44:12;20.55;;;4.65;;
19808;SDS011;48538;32.784;-96.802;2023-04-19T11:46:56;12.23;;;4.32;;
19808;SDS011;48538;32.784;-96.802;2023-04-19T11:49:29;12.73;;;4.40;;
19808;SDS011;48538;32.784;-96.802;2023-04-19T11:52:00;10.38;;;4.63;;
19808;SDS011;48538;32.784;-96.802;2023-04-19T11:54:30;9.38;;;4.00;;
19808;SDS011;48538;32.784;-96.802;2023-04-19T11:57:06;10.75;;;4.00;;
19808;SDS011;48538;32.784;-96.802;2023-04-19T11:59:33;15.43;;;5.00;;
19808;SDS011;48538;32.784;-96.802;2023-04-19T12:02:05;12.75;;;4.78;;
19808;SDS011;48538;32.784;-96.802;2023-04-19T12:04:32;24.02;;;4.28;;
19808;SDS011;48538;32.784;-96.802;2023-04-19T12:06:59;15.68;;;4.32;;
19808;SDS011;48538;32.784;-96.802;2023-04-19T12:09:27;13.00;;;4.10;;
19808;SDS011;48538;32.784;-96.802;2023-04-19T12:11:53;13.20;;;4.00;;
19808;SDS011;48538;32.784;-96.802;2023-04-19T12:14:21;12.55;;;4.65;;
19808;SDS011;48538;32.784;-96.802;2023-04-19T12:17:04;11.20;;;4.25;;
19808;SDS011;48538;32.784;-96.802;2023-04-19T12:19:33;10.82;;;4.00;;
19808;SDS011;48538;32.784;-96.802;2023-04-19T12:22:07;13.57;;;4.85;;
19808;SDS011;48538;32.784;-96.802;2023-04-19T12:24:35;14.00;;;4.82;;
19808;SDS011;48538;32.784;-96.802;2023-04-19T12:27:02;13.23;;;4.28;;
19808;SDS011;48538;32.784;-96.802;2023-04-19T12:29:29;15.90;;;4.50;;
19808;SDS011;48538;32.784;-96.802;2023-04-19T12:31:55;14.80;;;4.10;;
19808;SDS011;48538;32.784;-96.802;2023-04-19T12:34:21;13.68;;;5.28;;
19808;SDS011;48538;32.784;-96.802;2023-04-19T12:36:47;7.20;;;4.03;;
19808;SDS011;48538;32.784;-96.802;2023-04-19T12:39:14;20.85;;;5.03;;
19808;SDS011;48538;32.784;-96.802;2023-04-19T12:41:40;18.55;;;5.22;;
19808;SDS011;48538;32.784;-96.802;2023-04-19T12:44:07;15.48;;;4.55;;
19808;SDS011;48538;32.784;-96.802;2023-04-19T12:46:33;15.07;;;4.63;;
19808;SDS011;48538;32.784;-96.802;2023-04-19T12:49:00;17.08;;;5.40;;
19808;SDS011;48538;32.784;-96.802;2023-04-19T12:51:27;15.73;;;4.32;;
19808;SDS011;48538;32.784;-96.802;2023-04-19T12:53:53;8.10;;;3.83;;
19808;SDS011;48538;32.784;-96.802;2023-04-19T12:56:19;17.38;;;5.30;;
19808;SDS011;48538;32.784;-96.802;2023-04-19T12:58:45;10.27;;;4.35;;
19808;SDS011;48538;32.784;-96.802;2023-04-19T13:01:12;12.45;;;5.15;;
19808;SDS011;48538;32.784;-96.802;2023-04-19T13:03:38;24.45;;;6.15;;
19808;SDS011;48538;32.784;-96.802;2023-04-19T13:06:05;18.05;;;4.82;;
19808;SDS011;48538;32.784;-96.802;2023-04-19T13:08:31;10.93;;;4.55;;
19808;SDS011;48538;32.784;-96.802;2023-04-19T13:10:58;19.75;;;6.03;;
19808;SDS011;48538;32.784;-96.802;2023-04-19T13:13:24;9.90;;;4.97;;
19808;SDS011;48538;32.784;-96.802;2023-04-19T13:15:50;13.30;;;4.82;;
19808;SDS011;48538;32.784;-96.802;2023-04-19T13:18:17;17.55;;;5.13;;
19808;SDS011;48538;32.784;-96.802;2023-04-19T13:20:44;17.02;;;5.10;;
19808;SDS011;48538;32.784;-96.802;2023-04-19T13:23:11;12.93;;;5.63;;
19808;SDS011;48538;32.784;-96.802;2023-04-19T13:25:37;17.98;;;4.53;;
19808;SDS011;48538;32.784;-96.802;2023-04-19T13:28:03;18.63;;;5.43;;
19808;SDS011;48538;32.784;-96.802;2023-04-19T13:30:30;14.40;;;4.78;;
19808;SDS011;48538;32.784;-96.802;2023-04-19T13:32:56;15.15;;;5.13;;
19808;SDS011;48538;32.784;-96.802;2023-04-19T13:35:22;19.52;;;5.55;;
19808;SDS011;48538;32.784;-96.802;2023-04-19T13:37:48;15.80;;;5.70;;
19808;SDS011;48538;32.784;-96.802;2023-04-19T13:40:16;19.60;;;7.13;;
19808;SDS011;48538;32.784;-96.802;2023-04-19T13:42:42;17.20;;;5.60;;
19808;SDS011;48538;32.784;-96.802;2023-04-19T13:45:08;13.40;;;5.78;;
19808;SDS011;48538;32.784;-96.802;2023-04-19T13:47:35;18.35;;;5.63;;
19808;SDS011;48538;32.784;-96.802;2023-04-19T13:50:01;20.58;;;6.10;;
19808;SDS011;48538;32.784;-96.802;2023-04-19T13:52:28;21.70;;;6.32;;
19808;SDS011;48538;32.784;-96.802;2023-04-19T13:54:54;19.58;;;6.00;;
19808;SDS011;48538;32.784;-96.802;2023-04-19T13:57:20;16.08;;;5.43;;
19808;SDS011;48538;32.784;-96.802;2023-04-19T13:59:46;17.75;;;6.35;;
19808;SDS011;48538;32.784;-96.802;2023-04-19T14:02:13;20.08;;;5.68;;
19808;SDS011;48538;32.784;-96.802;2023-04-19T14:04:39;12.85;;;5.18;;
19808;SDS011;48538;32.784;-96.802;2023-04-19T14:07:05;15.73;;;5.75;;
19808;SDS011;48538;32.784;-96.802;2023-04-19T14:09:32;18.50;;;4.93;;
19808;SDS011;48538;32.784;-96.802;2023-04-19T14:11:58;18.80;;;4.97;;
19808;SDS011;48538;32.784;-96.802;2023-04-19T14:14:24;14.63;;;5.18;;
19808;SDS011;48538;32.784;-96.802;2023-04-19T14:16:51;16.55;;;5.38;;
19808;SDS011;48538;32.784;-96.802;2023-04-19T14:19:17;18.45;;;6.32;;
19808;SDS011;48538;32.784;-96.802;2023-04-19T14:21:43;19.95;;;5.30;;
19808;SDS011;48538;32.784;-96.802;2023-04-19T14:24:09;11.73;;;4.75;;
19808;SDS011;48538;32.784;-96.802;2023-04-19T14:26:36;13.13;;;5.35;;
19808;SDS011;48538;32.784;-96.802;2023-04-19T14:29:02;12.77;;;5.20;;
19808;SDS011;48538;32.784;-96.802;2023-04-19T14:31:28;15.20;;;5.38;;
19808;SDS011;48538;32.784;-96.802;2023-04-19T14:33:55;13.88;;;4.55;;
19808;SDS011;48538;32.784;-96.802;2023-04-19T14:36:23;24.98;;;5.88;;
19808;SDS011;48538;32.784;-96.802;2023-04-19T14:38:51;18.05;;;5.72;;
19808;SDS011;48538;32.784;-96.802;2023-04-19T14:41:20;20.90;;;5.50;;